Time;durP1;ratioP1;P1;durP2;ratioP2;P2;SDS_P1;SDS_P2;PMS_P1;PMS_P2;Temp;Humidity;BMP_temperature;BMP_pressure;BME280_temperature;BME280_humidity;BME280_pressure;Samples;Min_cycle;Max_cycle;Signal;HPM_P1;HPM_P2
2023/12/11 00:02:20;;;;;;;35.10;22.90;;;;;;;2.24;98.23;99489.45;107277;277;155553;-57
2023/12/11 00:04:55;;;;;;;36.30;23.30;;;;;;;2.25;98.22;99486.23;107497;277;113062;-57
2023/12/11 00:07:27;;;;;;;32.90;23.50;;;;;;;2.29;98.07;99485.20;107392;277;154564;-53
2023/12/11 00:09:58;;;;;;;35.90;23.20;;;;;;;2.31;98.25;99483.55;107531;277;98227;-53
2023/12/11 00:12:41;;;;;;;35.10;23.00;;;;;;;2.33;98.18;99479.27;107365;277;155918;-54
2023/12/11 00:15:14;;;;;;;35.00;21.80;;;;;;;2.37;98.42;99470.86;107442;277;103880;-53
2023/12/11 00:17:45;;;;;;;33.40;22.10;;;;;;;2.38;98.57;99470.55;107477;277;113521;-55
2023/12/11 00:20:21;;;;;;;32.80;21.40;;;;;;;2.36;98.40;99467.04;107380;277;155629;-54
2023/12/11 00:22:55;;;;;;;41.10;23.60;;;;;;;2.37;98.27;99466.20;107565;277;97572;-60
2023/12/11 00:25:32;;;;;;;32.10;20.90;;;;;;;2.36;98.22;99469.98;107331;277;154028;-59
2023/12/11 00:28:06;;;;;;;32.80;21.40;;;;;;;2.37;98.30;99468.83;107484;277;104594;-58
2023/12/11 00:30:42;;;;;;;29.00;20.40;;;;;;;2.40;98.29;99466.67;107398;276;154884;-58
2023/12/11 00:33:14;;;;;;;30.20;20.00;;;;;;;2.36;98.51;99461.50;107465;277;95125;-57
2023/12/11 00:35:53;;;;;;;28.50;20.00;;;;;;;2.38;98.56;99466.23;107498;277;96989;-58
2023/12/11 00:38:26;;;;;;;29.00;19.60;;;;;;;2.39;98.58;99463.17;107354;277;156172;-54
2023/12/11 00:41:06;;;;;;;32.20;19.60;;;;;;;2.41;98.74;99464.58;107475;277;105998;-54
2023/12/11 00:43:38;;;;;;;27.20;16.50;;;;;;;2.42;98.72;99461.79;107246;277;154604;-54
2023/12/11 00:46:17;;;;;;;32.60;19.70;;;;;;;2.41;99.04;99464.52;107513;277;95691;-54
2023/12/11 00:48:51;;;;;;;32.40;19.60;;;;;;;2.42;99.15;99463.55;107302;277;156019;-54
2023/12/11 00:51:24;;;;;;;29.00;20.00;;;;;;;2.47;98.98;99462.17;107476;277;120984;-55
2023/12/11 00:54:03;;;;;;;31.70;19.50;;;;;;;2.49;98.78;99460.55;107453;277;104993;-53
2023/12/11 00:56:39;;;;;;;28.50;18.80;;;;;;;2.51;99.00;99463.02;107341;277;155210;-54
2023/12/11 00:59:13;;;;;;;31.60;19.30;;;;;;;2.53;99.18;99460.50;107479;277;95104;-54
2023/12/11 01:01:48;;;;;;;27.70;18.60;;;;;;;2.56;99.18;99459.17;107327;277;155912;-53
2023/12/11 01:04:27;;;;;;;28.60;19.40;;;;;;;2.59;99.27;99455.39;107530;277;121395;-53
2023/12/11 01:07:05;;;;;;;31.30;18.90;;;;;;;2.59;99.03;99454.82;107312;277;155480;-54
2023/12/11 01:09:36;;;;;;;28.00;18.30;;;;;;;2.62;99.07;99450.02;107428;277;114266;-54
2023/12/11 01:12:09;;;;;;;33.20;19.80;;;;;;;2.64;99.15;99451.30;107512;277;95233;-54
2023/12/11 01:14:43;;;;;;;28.40;19.70;;;;;;;2.63;99.17;99453.30;107365;277;155471;-54
2023/12/11 01:17:21;;;;;;;30.10;18.50;;;;;;;2.63;99.21;99451.38;107454;277;121417;-58
2023/12/11 01:19:56;;;;;;;30.60;18.60;;;;;;;2.63;99.25;99447.31;107330;277;155617;-58
2023/12/11 01:22:29;;;;;;;27.80;17.40;;;;;;;2.63;99.14;99445.90;107468;277;114725;-54
2023/12/11 01:25:02;;;;;;;31.00;19.50;;;;;;;2.64;99.25;99446.31;107347;277;154899;-53
2023/12/11 01:27:38;;;;;;;29.60;18.20;;;;;;;2.69;99.23;99445.79;107497;277;98155;-59
2023/12/11 01:30:13;;;;;;;25.80;15.90;;;;;;;2.68;99.18;99439.09;107476;277;121506;-59
2023/12/11 01:32:45;;;;;;;;;;;;;;;2.69;99.08;99438.65;107550;277;105582;-54
2023/12/11 01:35:16;;;;;;;27.90;18.00;;;;;;;2.68;99.21;99433.73;107488;277;114684;-54
2023/12/11 01:37:56;;;;;;;29.90;18.00;;;;;;;2.66;99.40;99432.89;107362;277;154401;-55
2023/12/11 01:40:34;;;;;;;29.60;17.40;;;;;;;2.68;99.34;99429.45;107477;277;96394;-55
2023/12/11 01:43:25;;;;;;;27.70;16.10;;;;;;;2.69;99.12;99433.24;107332;277;154606;-59
2023/12/11 01:46:06;;;;;;;27.60;16.30;;;;;;;2.73;99.19;99427.73;107425;277;106220;-59
2023/12/11 01:48:39;;;;;;;30.40;16.60;;;;;;;2.76;99.15;99427.04;107351;277;156318;-59
2023/12/11 01:51:15;;;;;;;32.00;17.00;;;;;;;2.77;99.30;99424.02;107462;277;96400;-59
2023/12/11 01:53:48;;;;;;;22.80;15.80;;;;;;;2.75;99.19;99416.85;107535;277;97314;-58
2023/12/11 01:56:22;;;;;;;25.60;16.90;;;;;;;2.73;99.15;99412.90;107334;277;154859;-58
2023/12/11 01:58:54;;;;;;;29.60;16.00;;;;;;;2.73;99.25;99411.50;107480;277;105801;-55
2023/12/11 02:01:28;;;;;;;26.20;16.50;;;;;;;2.78;99.31;99409.73;107338;277;155104;-55
2023/12/11 02:04:05;;;;;;;25.70;15.10;;;;;;;2.76;99.38;99404.44;107557;276;95536;-55
2023/12/11 02:06:38;;;;;;;25.20;15.60;;;;;;;2.78;99.35;99401.61;107531;276;154522;-60
2023/12/11 02:09:12;;;;;;;26.80;16.50;;;;;;;2.76;99.28;99406.04;107541;277;121640;-58
2023/12/11 02:11:50;;;;;;;25.10;14.90;;;;;;;2.76;99.39;99406.97;107605;277;106152;-58
2023/12/11 02:14:29;;;;;;;23.60;14.60;;;;;;;2.71;99.19;99403.56;107307;277;156058;-59
2023/12/11 02:17:04;;;;;;;19.70;14.70;;;;;;;2.76;99.21;99396.34;107609;277;95935;-55
2023/12/11 02:19:37;;;;;;;25.70;15.50;;;;;;;2.77;99.17;99391.01;107374;277;155430;-54
2023/12/11 02:22:11;;;;;;;25.70;15.50;;;;;;;2.73;99.41;99390.73;107460;277;119731;-53
2023/12/11 02:24:49;;;;;;;22.40;14.40;;;;;;;2.72;99.28;99390.86;107343;277;154794;-54
2023/12/11 02:27:25;;;;;;;25.10;15.50;;;;;;;2.75;99.37;99384.27;107421;277;114463;-55
2023/12/11 02:29:57;;;;;;;25.10;14.90;;;;;;;2.76;99.46;99378.01;107517;277;96257;-55
2023/12/11 02:32:28;;;;;;;22.70;15.20;;;;;;;2.72;99.72;99375.23;107363;277;154662;-53
2023/12/11 02:34:59;;;;;;;23.30;14.30;;;;;;;2.70;99.68;99370.40;107555;277;121531;-55
2023/12/11 02:37:30;;;;;;;26.10;14.50;;;;;;;2.71;99.93;99364.77;107367;278;155860;-54
2023/12/11 02:40:08;;;;;;;28.40;15.80;;;;;;;2.70;99.80;99363.89;107516;277;114687;-54
2023/12/11 02:42:48;;;;;;;27.00;15.60;;;;;;;2.71;99.74;99358.27;107378;277;155026;-54
2023/12/11 02:45:28;;;;;;;23.80;14.30;;;;;;;2.71;99.75;99351.49;107441;277;98602;-54
2023/12/11 02:48:02;;;;;;;24.10;14.10;;;;;;;2.70;99.64;99346.27;107453;277;121561;-53
2023/12/11 02:50:34;;;;;;;23.40;14.50;;;;;;;2.73;99.52;99335.80;107364;277;154607;-53
2023/12/11 02:53:09;;;;;;;22.50;14.40;;;;;;;2.74;99.54;99326.62;107531;277;112835;-54
2023/12/11 02:55:40;;;;;;;23.70;14.50;;;;;;;2.73;99.45;99319.14;107370;277;155494;-54
2023/12/11 02:58:16;;;;;;;25.40;13.80;;;;;;;2.69;99.40;99322.05;107576;276;98261;-58
2023/12/11 03:00:55;;;;;;;21.60;14.40;;;;;;;2.63;99.46;99329.10;107492;276;154664;-58
2023/12/11 03:03:31;;;;;;;23.50;13.70;;;;;;;2.65;99.66;99338.79;107485;277;104238;-57
2023/12/11 03:06:19;;;;;;;26.00;15.30;;;;;;;2.64;99.65;99339.63;107537;277;113230;-59
2023/12/11 03:09:02;;;;;;;24.50;14.50;;;;;;;2.65;99.81;99332.63;107365;277;97595;-57
2023/12/11 03:11:42;;;;;;;31.60;16.00;;;;;;;2.67;99.90;99333.26;107495;277;98218;-57
2023/12/11 03:14:17;;;;;;;21.80;14.10;;;;;;;2.69;99.99;99333.44;107384;277;155439;-57
2023/12/11 03:16:51;;;;;;;24.20;15.40;;;;;;;2.68;99.97;99328.23;107493;277;105141;-54
2023/12/11 03:19:25;;;;;;;22.20;14.30;;;;;;;2.67;99.99;99325.60;107395;277;156092;-54
2023/12/11 03:21:56;;;;;;;25.80;14.90;;;;;;;2.68;100.00;99325.14;107464;277;95215;-54
2023/12/11 03:24:29;;;;;;;27.80;16.40;;;;;;;2.70;99.98;99330.96;107359;277;156059;-53
2023/12/11 03:27:06;;;;;;;25.80;15.70;;;;;;;2.70;99.96;99336.88;107452;277;121782;-58
2023/12/11 03:29:38;;;;;;;28.10;15.90;;;;;;;2.69;99.83;99339.77;107474;277;105299;-58
2023/12/11 03:32:14;;;;;;;28.80;15.50;;;;;;;2.68;99.98;99337.93;107331;277;155528;-58
2023/12/11 03:34:49;;;;;;;27.00;15.30;;;;;;;2.70;100.00;99339.34;107456;277;96913;-59
2023/12/11 03:37:23;;;;;;;24.90;15.80;;;;;;;2.70;99.98;99335.83;107348;277;154625;-59
2023/12/11 03:39:54;;;;;;;23.80;16.20;;;;;;;2.71;100.00;99334.61;107450;278;120272;-59
2023/12/11 03:42:27;;;;;;;24.80;14.50;;;;;;;2.73;99.99;99331.94;107335;278;155913;-55
2023/12/11 03:45:01;;;;;;;27.20;15.90;;;;;;;2.75;100.00;99332.56;107474;278;114266;-55
2023/12/11 03:47:32;;;;;;;26.20;15.20;;;;;;;2.74;100.00;99324.31;107469;277;95506;-58
2023/12/11 03:50:09;;;;;;;24.90;14.80;;;;;;;2.72;100.00;99318.67;107408;277;155784;-58
2023/12/11 03:52:47;;;;;;;26.00;15.90;;;;;;;2.70;100.00;99308.05;107462;277;120934;-55
2023/12/11 03:55:21;;;;;;;26.10;16.50;;;;;;;2.72;100.00;99296.44;107353;277;154912;-55
2023/12/11 03:57:53;;;;;;;25.50;15.60;;;;;;;2.72;100.00;99290.81;107430;277;114777;-61
2023/12/11 04:00:26;;;;;;;22.90;15.80;;;;;;;2.71;100.00;99287.67;107342;277;156198;-60
2023/12/11 04:03:05;;;;;;;27.40;15.80;;;;;;;2.71;100.00;99284.51;107526;277;96700;-55
2023/12/11 04:05:47;;;;;;;22.40;13.80;;;;;;;2.68;100.00;99281.73;107449;277;120030;-55
2023/12/11 04:08:19;;;;;;;24.20;15.00;;;;;;;2.66;100.00;99280.91;107379;277;155036;-55
2023/12/11 04:11:02;;;;;;;29.00;15.10;;;;;;;2.63;100.00;99273.45;107534;277;114551;-55
2023/12/11 04:13:46;;;;;;;24.50;15.20;;;;;;;2.63;100.00;99271.52;107358;277;155988;-54
2023/12/11 04:16:25;;;;;;;25.90;14.80;;;;;;;2.69;100.00;99277.95;107557;277;96757;-58
2023/12/11 04:19:03;;;;;;;25.10;15.40;;;;;;;2.71;100.00;99276.88;107314;277;154849;-59
2023/12/11 04:21:35;;;;;;;25.20;15.90;;;;;;;2.69;100.00;99277.93;107408;277;108893;-58
2023/12/11 04:24:08;;;;;;;24.20;15.10;;;;;;;2.70;100.00;99267.31;107459;277;113970;-58
2023/12/11 04:26:46;;;;;;;26.10;13.90;;;;;;;2.72;100.00;99256.61;107302;277;155096;-58
2023/12/11 04:29:21;;;;;;;28.70;15.80;;;;;;;2.71;100.00;99240.29;107492;277;96684;-58
2023/12/11 04:31:53;;;;;;;29.00;16.10;;;;;;;2.70;100.00;99225.21;107344;277;154711;-54
2023/12/11 04:34:29;;;;;;;23.50;15.10;;;;;;;2.68;100.00;99227.39;107485;277;106149;-54
2023/12/11 04:37:01;;;;;;;24.90;14.70;;;;;;;2.65;100.00;99234.16;107312;277;155147;-59
2023/12/11 04:39:40;;;;;;;30.30;15.20;;;;;;;2.61;100.00;99236.38;107415;277;97904;-59
2023/12/11 04:42:14;;;;;;;30.30;16.50;;;;;;;2.59;100.00;99230.36;107454;277;98134;-54
2023/12/11 04:44:48;;;;;;;25.90;15.30;;;;;;;2.57;100.00;99229.51;107316;277;154290;-54
2023/12/11 04:47:24;;;;;;;29.40;15.80;;;;;;;2.55;100.00;99230.79;107454;277;104577;-55
2023/12/11 04:49:59;;;;;;;26.20;14.60;;;;;;;2.57;100.00;99230.06;107319;277;155720;-54
2023/12/11 04:52:30;;;;;;;24.40;14.40;;;;;;;2.58;100.00;99232.40;107458;277;94386;-58
2023/12/11 04:55:07;;;;;;;27.70;15.40;;;;;;;2.52;100.00;99237.73;107289;277;155118;-58
2023/12/11 04:57:40;;;;;;;25.50;15.10;;;;;;;2.51;100.00;99250.22;107422;277;121056;-59
2023/12/11 05:00:18;;;;;;;23.70;15.00;;;;;;;2.52;100.00;99255.68;107469;277;104554;-59
2023/12/11 05:02:51;;;;;;;26.50;15.30;;;;;;;2.49;100.00;99238.91;107341;277;154692;-54
2023/12/11 05:05:26;;;;;;;26.00;15.40;;;;;;;2.46;100.00;99236.45;107488;277;96127;-54
2023/12/11 05:08:05;;;;;;;24.30;14.60;;;;;;;2.46;100.00;99246.35;107314;277;154865;-58
2023/12/11 05:10:38;;;;;;;28.10;14.60;;;;;;;2.45;100.00;99245.09;106887;277;770375;-58
2023/12/11 05:13:10;;;;;;;23.30;14.00;;;;;;;2.44;100.00;99248.31;107301;279;155821;-59
2023/12/11 05:15:51;;;;;;;32.20;17.40;;;;;;;2.46;100.00;99258.61;107457;277;114305;-59
2023/12/11 05:18:30;;;;;;;22.60;14.90;;;;;;;2.49;100.00;99264.70;107462;277;96027;-54
2023/12/11 05:21:10;;;;;;;23.00;14.10;;;;;;;2.50;100.00;99268.30;107428;277;97406;-53
2023/12/11 05:23:52;;;;;;;28.30;16.20;;;;;;;2.53;100.00;99266.94;107487;277;119918;-54
2023/12/11 05:26:25;;;;;;;26.70;15.00;;;;;;;2.58;100.00;99266.95;107351;277;154688;-53
2023/12/11 05:29:01;;;;;;;23.20;14.20;;;;;;;2.58;100.00;99262.42;107470;277;113739;-53
2023/12/11 05:31:38;;;;;;;26.40;14.30;;;;;;;2.62;100.00;99262.41;107333;277;156090;-54
2023/12/11 05:34:12;;;;;;;27.20;14.80;;;;;;;2.63;100.00;99262.45;107490;277;97719;-53
2023/12/11 05:36:46;;;;;;;26.70;14.00;;;;;;;2.60;100.00;99260.12;107336;277;154608;-59
2023/12/11 05:39:19;;;;;;;23.50;14.10;;;;;;;2.61;100.00;99258.38;107497;277;105372;-60
2023/12/11 05:41:52;;;;;;;25.20;15.80;;;;;;;2.66;100.00;99256.24;107430;277;113201;-59
2023/12/11 05:44:32;;;;;;;26.90;13.20;;;;;;;2.65;100.00;99256.34;107282;277;155131;-59
2023/12/11 05:47:07;;;;;;;24.60;12.90;;;;;;;2.66;100.00;99249.29;107467;277;97891;-54
2023/12/11 05:49:41;;;;;;;27.30;13.60;;;;;;;2.65;100.00;99240.85;107390;277;155456;-54
2023/12/11 05:52:23;;;;;;;22.80;13.00;;;;;;;2.66;100.00;99239.75;107579;277;104280;-61
2023/12/11 05:55:00;;;;;;;30.50;13.40;;;;;;;2.68;100.00;99235.41;107362;277;156637;-59
2023/12/11 05:57:43;;;;;;;25.20;13.20;;;;;;;2.72;100.00;99235.15;107482;277;94316;-59
2023/12/11 06:00:20;;;;;;;24.50;13.30;;;;;;;2.71;100.00;99228.26;107471;277;97547;-60
2023/12/11 06:02:54;;;;;;;23.40;14.10;;;;;;;2.74;100.00;99225.48;107356;277;155801;-56
2023/12/11 06:05:32;;;;;;;22.70;12.60;;;;;;;2.73;100.00;99221.15;107616;277;105929;-56
2023/12/11 06:08:06;;;;;;;21.90;11.80;;;;;;;2.77;100.00;99218.58;107346;277;155651;-56
2023/12/11 06:10:38;;;;;;;22.70;12.20;;;;;;;2.74;100.00;99210.88;107481;277;94679;-55
2023/12/11 06:13:11;;;;;;;21.40;11.40;;;;;;;2.74;100.00;99215.15;107375;277;154798;-63
2023/12/11 06:15:43;;;;;;;23.20;12.30;;;;;;;2.71;100.00;99214.41;107480;277;119638;-62
2023/12/11 06:18:18;;;;;;;19.90;11.10;;;;;;;2.72;100.00;99212.55;106650;277;1032161;-59
2023/12/11 06:20:53;;;;;;;25.00;13.30;;;;;;;2.71;100.00;99211.66;107485;277;115484;-59
2023/12/11 06:23:30;;;;;;;26.50;11.60;;;;;;;2.72;100.00;99213.45;107491;277;94971;-56
2023/12/11 06:26:05;;;;;;;21.90;12.50;;;;;;;2.75;100.00;99206.17;107474;277;96805;-55
2023/12/11 06:28:41;;;;;;;22.40;12.10;;;;;;;2.78;100.00;99199.08;107452;277;119450;-60
2023/12/11 06:31:18;;;;;;;24.00;12.40;;;;;;;2.78;100.00;99195.35;107517;277;104261;-59
2023/12/11 06:33:56;;;;;;;24.10;11.30;;;;;;;2.79;100.00;99185.48;107477;277;112884;-56
2023/12/11 06:36:30;;;;;;;24.50;12.10;;;;;;;2.75;100.00;99180.58;107445;277;95488;-56
2023/12/11 06:39:07;;;;;;;25.10;12.20;;;;;;;2.74;100.00;99183.40;107505;277;97054;-56
2023/12/11 06:41:39;;;;;;;24.40;12.70;;;;;;;2.78;100.00;99178.94;107488;277;119419;-57
2023/12/11 06:44:15;;;;;;;23.60;12.20;;;;;;;2.81;100.00;99186.34;107476;277;104606;-55
2023/12/11 06:46:52;;;;;;;28.50;12.90;;;;;;;2.76;100.00;99185.76;107473;277;114137;-55
2023/12/11 06:49:26;;;;;;;22.40;11.60;;;;;;;2.77;100.00;99181.81;107470;277;94749;-54
2023/12/11 06:51:58;;;;;;;21.90;11.40;;;;;;;2.74;100.00;99185.48;107515;277;97058;-60
2023/12/11 06:54:29;;;;;;;24.40;12.40;;;;;;;2.74;100.00;99179.02;107473;277;120150;-60
2023/12/11 06:57:08;;;;;;;23.60;11.70;;;;;;;2.75;100.00;99175.08;107482;277;105676;-55
2023/12/11 06:59:39;;;;;;;25.50;12.50;;;;;;;2.78;100.00;99172.08;107482;277;114630;-55
2023/12/11 07:02:13;;;;;;;27.20;12.70;;;;;;;2.78;100.00;99173.14;107503;277;94383;-55
2023/12/11 07:04:53;;;;;;;24.30;12.80;;;;;;;2.76;100.00;99170.49;107455;277;97255;-56
2023/12/11 07:07:25;;;;;;;24.30;13.40;;;;;;;2.76;100.00;99166.29;107442;277;121390;-61
2023/12/11 07:10:04;;;;;;;22.70;11.80;;;;;;;2.73;100.00;99161.77;107450;277;105166;-60
2023/12/11 07:12:42;;;;;;;23.40;12.30;;;;;;;2.74;100.00;99162.16;107449;277;114375;-60
2023/12/11 07:15:14;;;;;;;28.10;13.20;;;;;;;2.74;100.00;99157.02;107435;277;94497;-59
2023/12/11 07:17:46;;;;;;;21.90;12.20;;;;;;;2.73;100.00;99149.83;107481;277;98250;-56
2023/12/11 07:20:18;;;;;;;25.70;13.30;;;;;;;2.74;100.00;99140.86;107456;277;121119;-56
2023/12/11 07:23:01;;;;;;;22.60;12.50;;;;;;;2.76;100.00;99138.15;107478;277;104525;-55
2023/12/11 07:25:35;;;;;;;24.70;12.20;;;;;;;2.76;100.00;99137.12;107480;277;113856;-55
2023/12/11 07:28:12;;;;;;;22.20;12.50;;;;;;;2.79;100.00;99140.52;107498;277;94539;-55
2023/12/11 07:30:46;;;;;;;23.30;11.90;;;;;;;2.77;100.00;99138.05;107522;277;98449;-54
2023/12/11 07:33:20;;;;;;;28.20;12.20;;;;;;;2.78;100.00;99132.81;107487;277;120634;-58
2023/12/11 07:35:53;;;;;;;24.30;13.00;;;;;;;2.82;100.00;99125.61;107526;277;104301;-58
2023/12/11 07:38:30;;;;;;;23.10;13.40;;;;;;;2.80;100.00;99127.37;107441;277;113257;-58
2023/12/11 07:41:02;;;;;;;23.90;12.80;;;;;;;2.80;100.00;99129.64;107458;277;94717;-59
2023/12/11 07:43:41;;;;;;;26.30;14.00;;;;;;;2.83;100.00;99132.28;107459;277;97874;-56
2023/12/11 07:46:20;;;;;;;25.30;13.10;;;;;;;2.82;100.00;99128.27;107483;277;119254;-56
2023/12/11 07:48:53;;;;;;;22.70;14.30;;;;;;;2.82;100.00;99129.30;107491;277;104496;-56
2023/12/11 07:51:25;;;;;;;24.50;13.40;;;;;;;2.87;100.00;99117.76;107481;277;112919;-55
2023/12/11 07:53:59;;;;;;;20.30;12.70;;;;;;;2.85;100.00;99115.79;107486;277;96211;-54
2023/12/11 07:56:31;;;;;;;21.60;13.40;;;;;;;2.86;100.00;99115.09;107538;277;97079;-55
2023/12/11 07:59:07;;;;;;;23.00;12.60;;;;;;;2.89;100.00;99107.34;107485;277;121144;-55
2023/12/11 08:01:44;;;;;;;20.90;12.00;;;;;;;2.92;100.00;99109.02;107492;277;105370;-56
2023/12/11 08:04:17;;;;;;;19.70;11.90;;;;;;;2.97;100.00;99100.02;107451;277;114012;-55
2023/12/11 08:06:54;;;;;;;22.80;12.20;;;;;;;2.96;100.00;99109.19;107496;277;94543;-61
2023/12/11 08:09:36;;;;;;;23.90;13.90;;;;;;;2.96;100.00;99105.48;107448;277;98287;-61
2023/12/11 08:12:08;;;;;;;22.40;12.30;;;;;;;2.98;100.00;99105.25;107504;277;120454;-62
2023/12/11 08:14:48;;;;;;;24.10;12.40;;;;;;;2.99;100.00;99091.49;107443;277;104839;-61
2023/12/11 08:17:25;;;;;;;20.50;13.20;;;;;;;3.02;100.00;99090.13;107466;277;113393;-60
2023/12/11 08:19:56;;;;;;;26.50;12.80;;;;;;;3.01;100.00;99089.27;107507;277;95628;-60
2023/12/11 08:22:39;;;;;;;19.50;11.50;;;;;;;2.97;100.00;99084.21;107514;277;96991;-62
2023/12/11 08:25:15;;;;;;;20.00;12.10;;;;;;;2.97;100.00;99081.14;107456;277;121256;-61
2023/12/11 08:27:48;;;;;;;21.90;11.30;;;;;;;3.02;100.00;99083.30;107552;277;104702;-54
2023/12/11 08:30:22;;;;;;;20.30;11.40;;;;;;;3.04;100.00;99085.55;107443;277;114087;-53
2023/12/11 08:32:56;;;;;;;19.60;11.00;;;;;;;3.05;100.00;99084.81;107483;277;96211;-58
2023/12/11 08:35:38;;;;;;;20.70;11.00;;;;;;;3.06;100.00;99080.13;107463;277;97856;-58
2023/12/11 08:38:10;;;;;;;20.10;11.90;;;;;;;3.09;100.00;99073.30;107490;277;119556;-59
2023/12/11 08:40:44;;;;;;;20.90;10.40;;;;;;;3.13;100.00;99071.20;107491;277;105418;-59
2023/12/11 08:43:18;;;;;;;20.40;10.90;;;;;;;3.17;100.00;99064.84;107498;277;113944;-55
2023/12/11 08:45:51;;;;;;;18.50;10.80;;;;;;;3.14;100.00;99061.63;107463;277;96286;-55
2023/12/11 08:48:26;;;;;;;18.00;10.20;;;;;;;3.15;100.00;99059.98;107488;277;96283;-58
2023/12/11 08:51:03;;;;;;;18.90;10.30;;;;;;;3.19;100.00;99051.65;107475;277;119694;-58
2023/12/11 08:53:35;;;;;;;15.70;9.90;;;;;;;3.18;100.00;99042.46;107547;277;105273;-54
2023/12/11 08:56:09;;;;;;;20.30;10.20;;;;;;;3.20;100.00;99040.14;107479;277;115536;-55
2023/12/11 08:58:46;;;;;;;18.70;10.50;;;;;;;3.18;100.00;99033.91;107488;273;95646;-55
2023/12/11 09:01:18;;;;;;;26.60;10.40;;;;;;;3.24;100.00;99027.25;107537;277;98288;-57
2023/12/11 09:03:51;;;;;;;16.60;9.70;;;;;;;3.26;100.00;99032.58;107480;277;120990;-56
2023/12/11 09:06:28;;;;;;;18.60;10.00;;;;;;;3.24;100.00;99032.42;107481;277;103427;-60
2023/12/11 09:09:00;;;;;;;18.90;9.60;;;;;;;3.27;100.00;99030.42;107436;277;116046;-61
2023/12/11 09:11:31;;;;;;;16.00;9.10;;;;;;;3.30;100.00;99030.64;107479;277;94395;-58
2023/12/11 09:14:10;;;;;;;19.30;10.30;;;;;;;3.32;100.00;99025.96;107480;277;96843;-58
2023/12/11 09:16:49;;;;;;;16.30;8.90;;;;;;;3.35;100.00;99024.73;107463;277;120452;-60
2023/12/11 09:19:21;;;;;;;16.20;8.80;;;;;;;3.35;100.00;99018.46;107437;277;104547;-62
2023/12/11 09:22:00;;;;;;;19.10;9.30;;;;;;;3.35;100.00;99016.10;107468;277;112753;-55
2023/12/11 09:24:37;;;;;;;18.90;8.30;;;;;;;3.37;100.00;99019.12;107419;277;95247;-55
2023/12/11 09:27:13;;;;;;;17.00;9.80;;;;;;;3.34;100.00;99015.36;107512;277;97041;-61
2023/12/11 09:29:48;;;;;;;13.70;8.40;;;;;;;3.37;100.00;99016.26;107457;277;120510;-56
2023/12/11 09:32:30;;;;;;;17.10;9.60;;;;;;;3.42;100.00;99011.78;107477;277;106503;-57
2023/12/11 09:35:07;;;;;;;15.50;8.60;;;;;;;3.46;100.00;99005.41;107467;277;112388;-57
2023/12/11 09:37:41;;;;;;;18.20;8.50;;;;;;;3.51;100.00;99010.38;107514;277;95245;-60
2023/12/11 09:40:14;;;;;;;14.20;7.90;;;;;;;3.52;100.00;99007.87;107472;277;97055;-60
2023/12/11 09:42:48;;;;;;;17.10;8.40;;;;;;;3.54;100.00;99006.02;107460;277;121171;-59
2023/12/11 09:45:30;;;;;;;14.00;7.80;;;;;;;3.57;100.00;98999.29;107511;277;104577;-60
2023/12/11 09:48:07;;;;;;;17.60;8.50;;;;;;;3.57;100.00;98993.77;107482;277;114097;-62
2023/12/11 09:50:41;;;;;;;14.80;7.70;;;;;;;3.57;100.00;98996.15;107470;277;96501;-63
2023/12/11 09:53:15;;;;;;;17.30;7.60;;;;;;;3.55;100.00;98993.30;107530;277;96674;-56
2023/12/11 09:55:49;;;;;;;14.10;8.00;;;;;;;3.53;100.00;98988.20;107475;277;120569;-56
2023/12/11 09:58:22;;;;;;;13.60;8.00;;;;;;;3.53;100.00;98988.05;107521;277;106097;-55
2023/12/11 10:01:00;;;;;;;13.60;7.70;;;;;;;3.58;100.00;98982.27;107442;277;114907;-56
2023/12/11 10:03:40;;;;;;;13.40;7.00;;;;;;;3.63;100.00;98972.27;107486;277;93841;-60
2023/12/11 10:06:19;;;;;;;13.00;7.30;;;;;;;3.68;100.00;98969.52;107425;277;97327;-60
2023/12/11 10:08:53;;;;;;;13.00;7.60;;;;;;;3.67;100.00;98964.15;107482;277;119422;-55
2023/12/11 10:11:28;;;;;;;13.20;7.10;;;;;;;3.66;100.00;98959.64;107507;273;104081;-61
2023/12/11 10:14:12;;;;;;;13.50;6.80;;;;;;;3.66;100.00;98956.21;107481;277;115243;-62
2023/12/11 11:06:13;;;;;;;23.60;13.90;;;;;;;3.63;100.00;98918.38;103262;322;690153;-56
2023/12/11 11:09:02;;;;;;;14.90;8.10;;;;;;;3.73;100.00;98917.34;101020;316;5004866;-60
2023/12/11 11:15:01;;;;;;;25.80;16.30;;;;;;;3.83;100.00;98915.40;106753;310;102306;-60
2023/12/11 11:19:22;;;;;;;18.00;8.80;;;;;;;3.99;100.00;98914.65;104206;306;678750;-59
2023/12/11 11:28:50;;;;;;;38.80;18.90;;;;;;;4.23;100.00;98910.17;107059;285;117076;-59
2023/12/11 11:31:54;;;;;;;26.20;14.00;;;;;;;4.37;100.00;98905.34;106744;286;153638;-60
2023/12/11 11:34:51;;;;;;;22.60;12.30;;;;;;;4.42;100.00;98904.96;105882;286;115635;-60
2023/12/11 11:37:57;;;;;;;17.60;9.70;;;;;;;4.48;100.00;98891.23;106934;286;153926;-55
2023/12/11 11:40:39;;;;;;;24.60;14.00;;;;;;;4.46;100.00;98900.89;107072;286;97861;-54
2023/12/11 11:43:15;;;;;;;14.70;8.70;;;;;;;4.54;100.00;98894.90;106896;286;153892;-54
2023/12/11 11:45:58;;;;;;;23.60;12.60;;;;;;;4.61;100.00;98894.39;107064;286;105490;-54
2023/12/11 11:48:51;;;;;;;16.90;8.90;;;;;;;4.64;100.00;98896.66;106948;286;154538;-59
2023/12/11 11:51:29;;;;;;;14.80;8.30;;;;;;;4.62;100.00;98894.30;107046;286;97114;-59
2023/12/11 11:54:09;;;;;;;17.80;9.40;;;;;;;4.66;100.00;98887.02;106905;286;99094;-58
2023/12/11 11:56:52;;;;;;;16.00;8.30;;;;;;;4.70;100.00;98896.69;107036;286;118840;-58
2023/12/11 12:02:42;;;;;;;22.80;13.40;;;;;;;4.66;100.00;98892.70;107064;284;114315;-60
2023/12/11 12:05:19;;;;;;;17.90;9.40;;;;;;;4.68;100.00;98892.61;106997;278;99771;-60
2023/12/11 12:07:58;;;;;;;14.10;7.80;;;;;;;4.71;100.00;98889.13;107218;282;98059;-55
2023/12/11 12:20:18;;;;;;;20.10;11.30;;;;;;;4.91;100.00;98872.48;106898;284;154556;-54
2023/12/11 12:23:03;;;;;;;24.00;12.10;;;;;;;4.99;100.00;98869.20;106866;286;99767;-54
2023/12/11 12:25:45;;;;;;;15.00;8.40;;;;;;;5.04;100.00;98864.98;106899;285;154761;-55
2023/12/11 12:28:28;;;;;;;12.80;7.40;;;;;;;5.05;100.00;98870.39;106965;285;105884;-55
2023/12/11 12:34:26;;;;;;;15.00;9.00;;;;;;;5.03;100.00;98866.00;107224;281;95901;-54
2023/12/11 12:40:38;;;;;;;19.80;9.90;;;;;;;5.05;100.00;98864.53;107222;280;116459;-58
2023/12/11 12:43:16;;;;;;;15.90;9.10;;;;;;;5.08;100.00;98858.02;106999;285;155058;-58
2023/12/11 12:49:32;;;;;;;12.60;7.90;;;;;;;5.11;100.00;98860.61;107018;283;155113;-53
2023/12/11 12:55:40;;;;;;;21.70;12.00;;;;;;;5.05;100.00;98867.14;106984;284;154058;-59
2023/12/11 12:58:16;;;;;;;17.90;9.90;;;;;;;5.04;100.00;98869.63;106948;285;105671;-58
2023/12/11 13:00:50;;;;;;;15.80;9.80;;;;;;;5.01;100.00;98868.70;107066;285;113731;-59
2023/12/11 13:03:27;;;;;;;23.30;13.50;;;;;;;4.99;100.00;98871.98;106916;285;97743;-53
2023/12/11 13:06:04;;;;;;;22.80;13.10;;;;;;;4.99;100.00;98874.45;107055;285;97212;-55
2023/12/11 13:08:48;;;;;;;17.80;10.60;;;;;;;5.02;100.00;98876.61;106786;285;154373;-54
2023/12/11 13:11:41;;;;;;;27.70;14.20;;;;;;;5.03;100.00;98879.05;107075;285;106015;-54
2023/12/11 13:14:18;;;;;;;24.20;12.30;;;;;;;5.06;100.00;98881.67;107113;278;113919;-53
2023/12/11 13:20:26;;;;;;;22.70;12.40;;;;;;;5.01;100.00;98885.13;106908;283;155215;-60
2023/12/11 13:23:01;;;;;;;19.50;10.00;;;;;;;5.03;100.00;98889.60;107038;285;118373;-57
2023/12/11 13:25:42;;;;;;;16.10;9.30;;;;;;;5.03;100.00;98888.31;106910;285;154594;-57
2023/12/11 13:28:27;;;;;;;20.70;10.30;;;;;;;5.01;100.00;98886.33;106943;285;114651;-53